sensor_id;sensor_type;location;lat;lon;timestamp;P1;durP1;ratioP1;P2;durP2;ratioP2
20695;SDS011;10507;52.754;13.040;2023-06-26T00:00:03;9.45;;;8.07;;
20695;SDS011;10507;52.754;13.040;2023-06-26T00:02:33;14.43;;;9.35;;
20695;SDS011;10507;52.754;13.040;2023-06-26T00:05:01;9.52;;;8.32;;
20695;SDS011;10507;52.754;13.040;2023-06-26T00:07:29;11.30;;;8.20;;
20695;SDS011;10507;52.754;13.040;2023-06-26T00:10:01;10.82;;;8.10;;
20695;SDS011;10507;52.754;13.040;2023-06-26T00:12:30;13.65;;;9.63;;
20695;SDS011;10507;52.754;13.040;2023-06-26T00:14:58;10.95;;;9.57;;
20695;SDS011;10507;52.754;13.040;2023-06-26T00:17:27;10.45;;;8.93;;
20695;SDS011;10507;52.754;13.040;2023-06-26T00:19:55;11.18;;;9.65;;
20695;SDS011;10507;52.754;13.040;2023-06-26T00:22:22;10.40;;;8.93;;
20695;SDS011;10507;52.754;13.040;2023-06-26T00:24:50;13.18;;;9.18;;
20695;SDS011;10507;52.754;13.040;2023-06-26T00:27:20;11.68;;;9.32;;
20695;SDS011;10507;52.754;13.040;2023-06-26T00:29:48;10.88;;;9.65;;
20695;SDS011;10507;52.754;13.040;2023-06-26T00:32:16;12.40;;;9.43;;
20695;SDS011;10507;52.754;13.040;2023-06-26T00:34:43;14.15;;;9.55;;
20695;SDS011;10507;52.754;13.040;2023-06-26T00:37:13;11.85;;;9.88;;
20695;SDS011;10507;52.754;13.040;2023-06-26T00:39:40;11.70;;;9.90;;
20695;SDS011;10507;52.754;13.040;2023-06-26T00:42:08;14.27;;;9.65;;
20695;SDS011;10507;52.754;13.040;2023-06-26T00:44:37;12.95;;;10.63;;
20695;SDS011;10507;52.754;13.040;2023-06-26T00:47:05;15.82;;;10.55;;
20695;SDS011;10507;52.754;13.040;2023-06-26T00:49:33;14.05;;;10.25;;
20695;SDS011;10507;52.754;13.040;2023-06-26T00:52:01;13.57;;;10.18;;
20695;SDS011;10507;52.754;13.040;2023-06-26T00:54:30;15.57;;;10.82;;
20695;SDS011;10507;52.754;13.040;2023-06-26T00:56:58;11.63;;;9.65;;
20695;SDS011;10507;52.754;13.040;2023-06-26T00:59:26;11.35;;;10.13;;
20695;SDS011;10507;52.754;13.040;2023-06-26T01:01:56;14.60;;;11.02;;
20695;SDS011;10507;52.754;13.040;2023-06-26T01:04:24;13.13;;;10.75;;
20695;SDS011;10507;52.754;13.040;2023-06-26T01:06:54;13.10;;;10.65;;
20695;SDS011;10507;52.754;13.040;2023-06-26T01:09:23;12.82;;;10.70;;
20695;SDS011;10507;52.754;13.040;2023-06-26T01:11:51;12.77;;;9.85;;
20695;SDS011;10507;52.754;13.040;2023-06-26T01:14:19;12.73;;;10.73;;
20695;SDS011;10507;52.754;13.040;2023-06-26T01:16:48;12.55;;;10.75;;
20695;SDS011;10507;52.754;13.040;2023-06-26T01:19:20;16.88;;;11.13;;
20695;SDS011;10507;52.754;13.040;2023-06-26T01:21:54;12.02;;;9.93;;
20695;SDS011;10507;52.754;13.040;2023-06-26T01:24:30;13.55;;;10.13;;
20695;SDS011;10507;52.754;13.040;2023-06-26T01:27:04;14.57;;;10.00;;
20695;SDS011;10507;52.754;13.040;2023-06-26T01:29:33;13.95;;;9.90;;
20695;SDS011;10507;52.754;13.040;2023-06-26T01:32:03;12.57;;;10.73;;
20695;SDS011;10507;52.754;13.040;2023-06-26T01:34:33;16.15;;;11.77;;
20695;SDS011;10507;52.754;13.040;2023-06-26T01:37:00;14.30;;;10.27;;
20695;SDS011;10507;52.754;13.040;2023-06-26T01:39:28;12.27;;;10.45;;
20695;SDS011;10507;52.754;13.040;2023-06-26T01:41:57;13.70;;;10.85;;
20695;SDS011;10507;52.754;13.040;2023-06-26T01:44:28;14.00;;;11.40;;
20695;SDS011;10507;52.754;13.040;2023-06-26T01:46:59;13.30;;;10.57;;
20695;SDS011;10507;52.754;13.040;2023-06-26T01:49:30;13.57;;;10.10;;
20695;SDS011;10507;52.754;13.040;2023-06-26T01:52:06;12.57;;;9.95;;
20695;SDS011;10507;52.754;13.040;2023-06-26T01:54:37;13.60;;;11.20;;
20695;SDS011;10507;52.754;13.040;2023-06-26T01:57:11;16.45;;;11.65;;
20695;SDS011;10507;52.754;13.040;2023-06-26T01:59:41;14.68;;;11.13;;
20695;SDS011;10507;52.754;13.040;2023-06-26T02:02:10;13.13;;;10.48;;
20695;SDS011;10507;52.754;13.040;2023-06-26T02:04:38;14.60;;;10.85;;
20695;SDS011;10507;52.754;13.040;2023-06-26T02:07:07;19.70;;;10.95;;
20695;SDS011;10507;52.754;13.040;2023-06-26T02:09:36;16.27;;;11.48;;
20695;SDS011;10507;52.754;13.040;2023-06-26T02:12:04;14.35;;;11.68;;
20695;SDS011;10507;52.754;13.040;2023-06-26T02:14:32;15.77;;;10.25;;
20695;SDS011;10507;52.754;13.040;2023-06-26T02:17:01;17.00;;;11.30;;
20695;SDS011;10507;52.754;13.040;2023-06-26T02:19:30;15.63;;;11.70;;
20695;SDS011;10507;52.754;13.040;2023-06-26T02:22:00;12.57;;;10.45;;
20695;SDS011;10507;52.754;13.040;2023-06-26T02:24:28;17.00;;;11.90;;
20695;SDS011;10507;52.754;13.040;2023-06-26T02:26:56;15.68;;;12.05;;
20695;SDS011;10507;52.754;13.040;2023-06-26T02:29:24;14.20;;;11.55;;
20695;SDS011;10507;52.754;13.040;2023-06-26T02:31:52;13.82;;;11.05;;
20695;SDS011;10507;52.754;13.040;2023-06-26T02:34:21;15.60;;;11.50;;
20695;SDS011;10507;52.754;13.040;2023-06-26T02:36:49;15.57;;;11.80;;
20695;SDS011;10507;52.754;13.040;2023-06-26T02:39:17;14.32;;;11.18;;
20695;SDS011;10507;52.754;13.040;2023-06-26T02:41:44;13.65;;;10.50;;
20695;SDS011;10507;52.754;13.040;2023-06-26T02:44:12;12.98;;;9.80;;
20695;SDS011;10507;52.754;13.040;2023-06-26T02:46:40;14.55;;;10.85;;
20695;SDS011;10507;52.754;13.040;2023-06-26T02:49:08;13.93;;;11.43;;
20695;SDS011;10507;52.754;13.040;2023-06-26T02:51:38;13.02;;;11.18;;
20695;SDS011;10507;52.754;13.040;2023-06-26T02:54:05;15.25;;;12.48;;
20695;SDS011;10507;52.754;13.040;2023-06-26T02:56:33;14.25;;;11.20;;
20695;SDS011;10507;52.754;13.040;2023-06-26T02:59:10;15.43;;;11.82;;
20695;SDS011;10507;52.754;13.040;2023-06-26T03:01:38;15.73;;;12.00;;
20695;SDS011;10507;52.754;13.040;2023-06-26T03:04:06;15.05;;;10.88;;
20695;SDS011;10507;52.754;13.040;2023-06-26T03:06:34;13.93;;;11.02;;
20695;SDS011;10507;52.754;13.040;2023-06-26T03:09:04;14.50;;;11.90;;
20695;SDS011;10507;52.754;13.040;2023-06-26T03:11:32;17.73;;;12.43;;
20695;SDS011;10507;52.754;13.040;2023-06-26T03:14:00;14.80;;;12.05;;
20695;SDS011;10507;52.754;13.040;2023-06-26T03:16:27;15.07;;;12.98;;
20695;SDS011;10507;52.754;13.040;2023-06-26T03:18:55;15.73;;;13.27;;
20695;SDS011;10507;52.754;13.040;2023-06-26T03:21:23;16.48;;;13.00;;
20695;SDS011;10507;52.754;13.040;2023-06-26T03:23:51;17.75;;;13.45;;
20695;SDS011;10507;52.754;13.040;2023-06-26T03:26:20;16.13;;;12.68;;
20695;SDS011;10507;52.754;13.040;2023-06-26T03:28:54;15.30;;;13.02;;
20695;SDS011;10507;52.754;13.040;2023-06-26T03:31:22;18.23;;;13.55;;
20695;SDS011;10507;52.754;13.040;2023-06-26T03:33:50;16.42;;;13.18;;
20695;SDS011;10507;52.754;13.040;2023-06-26T03:36:19;18.42;;;12.25;;
20695;SDS011;10507;52.754;13.040;2023-06-26T03:38:47;14.85;;;12.10;;
20695;SDS011;10507;52.754;13.040;2023-06-26T03:41:14;14.45;;;12.10;;
20695;SDS011;10507;52.754;13.040;2023-06-26T03:43:44;16.98;;;12.23;;
20695;SDS011;10507;52.754;13.040;2023-06-26T03:46:12;13.30;;;11.75;;
20695;SDS011;10507;52.754;13.040;2023-06-26T03:48:40;15.27;;;11.45;;
20695;SDS011;10507;52.754;13.040;2023-06-26T03:51:08;14.27;;;12.23;;
20695;SDS011;10507;52.754;13.040;2023-06-26T03:53:36;16.13;;;11.85;;
20695;SDS011;10507;52.754;13.040;2023-06-26T03:56:03;12.63;;;11.10;;
20695;SDS011;10507;52.754;13.040;2023-06-26T03:58:31;14.40;;;11.63;;
20695;SDS011;10507;52.754;13.040;2023-06-26T04:01:00;13.95;;;10.80;;
20695;SDS011;10507;52.754;13.040;2023-06-26T04:03:28;10.73;;;9.35;;
20695;SDS011;10507;52.754;13.040;2023-06-26T04:05:57;14.18;;;9.60;;
20695;SDS011;10507;52.754;13.040;2023-06-26T04:08:25;14.65;;;10.65;;
20695;SDS011;10507;52.754;13.040;2023-06-26T04:10:56;14.65;;;11.52;;
20695;SDS011;10507;52.754;13.040;2023-06-26T04:13:25;12.98;;;11.05;;
20695;SDS011;10507;52.754;13.040;2023-06-26T04:15:53;13.55;;;9.90;;
20695;SDS011;10507;52.754;13.040;2023-06-26T04:18:22;16.52;;;11.57;;
20695;SDS011;10507;52.754;13.040;2023-06-26T04:21:07;13.27;;;10.15;;
20695;SDS011;10507;52.754;13.040;2023-06-26T04:23:37;13.10;;;10.73;;
20695;SDS011;10507;52.754;13.040;2023-06-26T04:26:06;15.23;;;11.27;;
20695;SDS011;10507;52.754;13.040;2023-06-26T04:28:35;16.70;;;12.10;;
20695;SDS011;10507;52.754;13.040;2023-06-26T04:31:03;13.27;;;10.48;;
20695;SDS011;10507;52.754;13.040;2023-06-26T04:33:32;13.55;;;9.95;;
20695;SDS011;10507;52.754;13.040;2023-06-26T04:36:01;10.65;;;8.25;;
20695;SDS011;10507;52.754;13.040;2023-06-26T04:38:30;11.57;;;8.43;;
20695;SDS011;10507;52.754;13.040;2023-06-26T04:40:58;14.07;;;10.98;;
20695;SDS011;10507;52.754;13.040;2023-06-26T04:43:26;13.50;;;9.38;;
20695;SDS011;10507;52.754;13.040;2023-06-26T04:45:54;10.40;;;8.23;;
20695;SDS011;10507;52.754;13.040;2023-06-26T04:48:22;10.90;;;8.48;;
20695;SDS011;10507;52.754;13.040;2023-06-26T04:50:51;11.73;;;8.93;;
20695;SDS011;10507;52.754;13.040;2023-06-26T04:53:20;10.05;;;8.20;;
20695;SDS011;10507;52.754;13.040;2023-06-26T04:55:49;11.18;;;7.97;;
20695;SDS011;10507;52.754;13.040;2023-06-26T04:58:17;10.02;;;8.35;;
20695;SDS011;10507;52.754;13.040;2023-06-26T05:00:45;9.02;;;7.40;;
20695;SDS011;10507;52.754;13.040;2023-06-26T05:03:13;10.98;;;8.98;;
20695;SDS011;10507;52.754;13.040;2023-06-26T05:05:44;9.95;;;8.38;;
20695;SDS011;10507;52.754;13.040;2023-06-26T05:08:14;12.55;;;8.27;;
20695;SDS011;10507;52.754;13.040;2023-06-26T05:10:43;12.10;;;9.05;;
20695;SDS011;10507;52.754;13.040;2023-06-26T05:13:12;10.20;;;7.80;;
20695;SDS011;10507;52.754;13.040;2023-06-26T05:15:43;10.55;;;8.40;;
20695;SDS011;10507;52.754;13.040;2023-06-26T05:18:11;10.73;;;8.80;;
20695;SDS011;10507;52.754;13.040;2023-06-26T05:20:40;10.60;;;6.78;;
20695;SDS011;10507;52.754;13.040;2023-06-26T05:23:08;9.75;;;7.82;;
20695;SDS011;10507;52.754;13.040;2023-06-26T05:25:40;12.05;;;7.82;;
20695;SDS011;10507;52.754;13.040;2023-06-26T05:28:09;9.55;;;7.25;;
20695;SDS011;10507;52.754;13.040;2023-06-26T05:30:38;9.65;;;7.90;;
20695;SDS011;10507;52.754;13.040;2023-06-26T05:33:07;11.95;;;7.28;;
20695;SDS011;10507;52.754;13.040;2023-06-26T05:35:38;10.23;;;7.47;;
20695;SDS011;10507;52.754;13.040;2023-06-26T05:38:06;9.00;;;7.18;;
20695;SDS011;10507;52.754;13.040;2023-06-26T05:40:35;8.05;;;7.15;;
20695;SDS011;10507;52.754;13.040;2023-06-26T05:43:06;9.48;;;6.97;;
20695;SDS011;10507;52.754;13.040;2023-06-26T05:45:34;8.45;;;7.20;;
20695;SDS011;10507;52.754;13.040;2023-06-26T05:48:02;10.65;;;7.35;;
20695;SDS011;10507;52.754;13.040;2023-06-26T05:50:31;8.70;;;7.45;;
20695;SDS011;10507;52.754;13.040;2023-06-26T05:53:00;8.20;;;7.20;;
20695;SDS011;10507;52.754;13.040;2023-06-26T05:55:29;8.23;;;6.88;;
20695;SDS011;10507;52.754;13.040;2023-06-26T05:57:58;8.27;;;7.25;;
20695;SDS011;10507;52.754;13.040;2023-06-26T06:00:29;8.38;;;6.70;;
20695;SDS011;10507;52.754;13.040;2023-06-26T06:02:57;10.77;;;6.90;;
20695;SDS011;10507;52.754;13.040;2023-06-26T06:05:25;8.45;;;6.05;;
20695;SDS011;10507;52.754;13.040;2023-06-26T06:07:52;7.90;;;6.63;;
20695;SDS011;10507;52.754;13.040;2023-06-26T06:10:20;7.43;;;6.18;;
20695;SDS011;10507;52.754;13.040;2023-06-26T06:12:48;8.80;;;6.30;;
20695;SDS011;10507;52.754;13.040;2023-06-26T06:15:17;7.35;;;6.22;;
20695;SDS011;10507;52.754;13.040;2023-06-26T06:17:46;7.30;;;5.78;;
20695;SDS011;10507;52.754;13.040;2023-06-26T06:20:14;6.45;;;5.35;;
20695;SDS011;10507;52.754;13.040;2023-06-26T06:22:42;6.85;;;5.78;;
20695;SDS011;10507;52.754;13.040;2023-06-26T06:25:09;6.93;;;5.18;;
20695;SDS011;10507;52.754;13.040;2023-06-26T06:27:37;5.95;;;5.28;;
20695;SDS011;10507;52.754;13.040;2023-06-26T06:30:05;6.10;;;4.85;;
20695;SDS011;10507;52.754;13.040;2023-06-26T06:32:34;6.35;;;4.72;;
20695;SDS011;10507;52.754;13.040;2023-06-26T06:35:03;9.90;;;4.70;;
20695;SDS011;10507;52.754;13.040;2023-06-26T06:37:36;5.30;;;4.32;;
20695;SDS011;10507;52.754;13.040;2023-06-26T06:40:04;5.75;;;4.35;;
20695;SDS011;10507;52.754;13.040;2023-06-26T06:42:34;6.18;;;4.03;;
20695;SDS011;10507;52.754;13.040;2023-06-26T06:45:02;6.20;;;3.90;;
20695;SDS011;10507;52.754;13.040;2023-06-26T06:47:31;5.05;;;4.10;;
20695;SDS011;10507;52.754;13.040;2023-06-26T06:49:59;6.53;;;4.40;;
20695;SDS011;10507;52.754;13.040;2023-06-26T06:52:37;6.68;;;4.10;;
20695;SDS011;10507;52.754;13.040;2023-06-26T06:55:07;5.13;;;4.45;;
20695;SDS011;10507;52.754;13.040;2023-06-26T06:57:35;5.97;;;4.28;;
20695;SDS011;10507;52.754;13.040;2023-06-26T07:00:05;4.60;;;3.53;;
20695;SDS011;10507;52.754;13.040;2023-06-26T07:02:36;3.95;;;3.53;;
20695;SDS011;10507;52.754;13.040;2023-06-26T07:05:04;6.40;;;3.63;;
20695;SDS011;10507;52.754;13.040;2023-06-26T07:07:33;4.38;;;3.70;;
20695;SDS011;10507;52.754;13.040;2023-06-26T07:10:03;6.13;;;3.80;;
20695;SDS011;10507;52.754;13.040;2023-06-26T07:12:33;6.25;;;3.90;;
20695;SDS011;10507;52.754;13.040;2023-06-26T07:15:01;7.47;;;3.85;;
20695;SDS011;10507;52.754;13.040;2023-06-26T07:17:35;5.03;;;3.58;;
20695;SDS011;10507;52.754;13.040;2023-06-26T07:20:04;6.57;;;3.70;;
20695;SDS011;10507;52.754;13.040;2023-06-26T07:22:35;10.15;;;3.45;;
20695;SDS011;10507;52.754;13.040;2023-06-26T07:25:04;5.78;;;3.97;;
20695;SDS011;10507;52.754;13.040;2023-06-26T07:27:35;6.18;;;3.88;;
20695;SDS011;10507;52.754;13.040;2023-06-26T07:30:07;4.93;;;3.45;;
20695;SDS011;10507;52.754;13.040;2023-06-26T07:32:36;3.83;;;3.28;;
20695;SDS011;10507;52.754;13.040;2023-06-26T07:35:04;5.50;;;3.58;;
20695;SDS011;10507;52.754;13.040;2023-06-26T07:37:32;6.60;;;3.67;;
20695;SDS011;10507;52.754;13.040;2023-06-26T07:40:00;4.55;;;3.33;;
20695;SDS011;10507;52.754;13.040;2023-06-26T07:42:30;4.30;;;3.45;;
20695;SDS011;10507;52.754;13.040;2023-06-26T07:44:57;5.30;;;4.05;;
20695;SDS011;10507;52.754;13.040;2023-06-26T07:47:25;6.38;;;3.38;;
20695;SDS011;10507;52.754;13.040;2023-06-26T07:49:53;5.22;;;3.70;;
20695;SDS011;10507;52.754;13.040;2023-06-26T07:52:21;6.00;;;4.07;;
20695;SDS011;10507;52.754;13.040;2023-06-26T07:54:53;5.80;;;3.58;;
20695;SDS011;10507;52.754;13.040;2023-06-26T07:57:21;6.38;;;3.85;;
20695;SDS011;10507;52.754;13.040;2023-06-26T07:59:50;5.80;;;3.55;;
20695;SDS011;10507;52.754;13.040;2023-06-26T08:02:18;6.68;;;3.53;;
20695;SDS011;10507;52.754;13.040;2023-06-26T08:04:46;5.18;;;3.45;;
20695;SDS011;10507;52.754;13.040;2023-06-26T08:07:14;4.90;;;3.60;;
20695;SDS011;10507;52.754;13.040;2023-06-26T08:09:42;4.95;;;3.45;;
20695;SDS011;10507;52.754;13.040;2023-06-26T08:12:10;4.20;;;3.33;;
20695;SDS011;10507;52.754;13.040;2023-06-26T08:14:38;6.32;;;3.13;;
20695;SDS011;10507;52.754;13.040;2023-06-26T08:17:08;5.15;;;3.60;;
20695;SDS011;10507;52.754;13.040;2023-06-26T08:19:36;4.72;;;3.60;;
20695;SDS011;10507;52.754;13.040;2023-06-26T08:22:04;4.05;;;3.08;;
20695;SDS011;10507;52.754;13.040;2023-06-26T08:24:32;5.75;;;3.67;;
20695;SDS011;10507;52.754;13.040;2023-06-26T08:27:01;3.85;;;3.13;;
20695;SDS011;10507;52.754;13.040;2023-06-26T08:29:29;5.45;;;3.40;;
20695;SDS011;10507;52.754;13.040;2023-06-26T08:31:57;3.97;;;3.35;;
20695;SDS011;10507;52.754;13.040;2023-06-26T08:34:26;4.80;;;3.65;;
20695;SDS011;10507;52.754;13.040;2023-06-26T08:36:54;5.43;;;3.22;;
20695;SDS011;10507;52.754;13.040;2023-06-26T08:39:22;5.60;;;3.47;;
20695;SDS011;10507;52.754;13.040;2023-06-26T08:41:50;4.70;;;3.72;;
20695;SDS011;10507;52.754;13.040;2023-06-26T08:44:18;5.05;;;3.30;;
20695;SDS011;10507;52.754;13.040;2023-06-26T08:46:51;3.35;;;2.97;;
20695;SDS011;10507;52.754;13.040;2023-06-26T08:49:20;4.45;;;2.92;;
20695;SDS011;10507;52.754;13.040;2023-06-26T08:51:56;6.72;;;3.40;;
20695;SDS011;10507;52.754;13.040;2023-06-26T08:54:28;4.40;;;3.10;;
20695;SDS011;10507;52.754;13.040;2023-06-26T08:57:01;6.63;;;3.40;;
20695;SDS011;10507;52.754;13.040;2023-06-26T08:59:31;4.70;;;3.30;;
20695;SDS011;10507;52.754;13.040;2023-06-26T09:01:59;4.88;;;3.55;;
20695;SDS011;10507;52.754;13.040;2023-06-26T09:04:29;7.35;;;3.08;;
20695;SDS011;10507;52.754;13.040;2023-06-26T09:06:59;4.15;;;3.10;;
20695;SDS011;10507;52.754;13.040;2023-06-26T09:09:28;5.28;;;2.92;;
20695;SDS011;10507;52.754;13.040;2023-06-26T09:11:56;5.63;;;3.40;;
20695;SDS011;10507;52.754;13.040;2023-06-26T09:14:25;5.05;;;3.00;;
20695;SDS011;10507;52.754;13.040;2023-06-26T09:16:53;4.82;;;3.20;;
20695;SDS011;10507;52.754;13.040;2023-06-26T09:19:21;4.60;;;3.00;;
20695;SDS011;10507;52.754;13.040;2023-06-26T09:21:49;6.63;;;3.33;;
20695;SDS011;10507;52.754;13.040;2023-06-26T09:24:19;6.28;;;3.47;;
20695;SDS011;10507;52.754;13.040;2023-06-26T09:26:49;4.43;;;3.00;;
20695;SDS011;10507;52.754;13.040;2023-06-26T09:29:18;3.50;;;2.55;;
20695;SDS011;10507;52.754;13.040;2023-06-26T09:31:47;5.28;;;3.25;;
20695;SDS011;10507;52.754;13.040;2023-06-26T09:34:15;4.38;;;2.70;;
20695;SDS011;10507;52.754;13.040;2023-06-26T09:36:45;5.53;;;3.10;;
20695;SDS011;10507;52.754;13.040;2023-06-26T09:39:15;3.83;;;2.80;;
20695;SDS011;10507;52.754;13.040;2023-06-26T09:41:44;5.85;;;3.40;;
20695;SDS011;10507;52.754;13.040;2023-06-26T09:44:13;4.10;;;2.90;;
20695;SDS011;10507;52.754;13.040;2023-06-26T09:46:44;4.80;;;3.30;;
20695;SDS011;10507;52.754;13.040;2023-06-26T09:49:12;3.85;;;3.00;;
20695;SDS011;10507;52.754;13.040;2023-06-26T09:51:41;3.97;;;3.00;;
20695;SDS011;10507;52.754;13.040;2023-06-26T09:54:10;4.03;;;3.15;;
20695;SDS011;10507;52.754;13.040;2023-06-26T09:56:37;3.53;;;3.03;;
20695;SDS011;10507;52.754;13.040;2023-06-26T09:59:07;4.07;;;3.20;;
20695;SDS011;10507;52.754;13.040;2023-06-26T10:01:39;5.03;;;3.15;;
20695;SDS011;10507;52.754;13.040;2023-06-26T10:04:08;5.35;;;3.38;;
20695;SDS011;10507;52.754;13.040;2023-06-26T10:06:36;5.65;;;3.15;;
20695;SDS011;10507;52.754;13.040;2023-06-26T10:09:12;4.70;;;2.65;;
20695;SDS011;10507;52.754;13.040;2023-06-26T10:11:45;4.95;;;2.70;;
20695;SDS011;10507;52.754;13.040;2023-06-26T10:14:18;4.70;;;3.10;;
20695;SDS011;10507;52.754;13.040;2023-06-26T10:16:48;4.13;;;3.58;;
20695;SDS011;10507;52.754;13.040;2023-06-26T10:19:18;4.32;;;3.20;;
20695;SDS011;10507;52.754;13.040;2023-06-26T10:21:52;5.57;;;3.67;;
20695;SDS011;10507;52.754;13.040;2023-06-26T10:24:21;5.43;;;3.30;;
20695;SDS011;10507;52.754;13.040;2023-06-26T10:26:52;4.55;;;3.45;;
20695;SDS011;10507;52.754;13.040;2023-06-26T10:29:26;5.00;;;3.35;;
20695;SDS011;10507;52.754;13.040;2023-06-26T10:31:56;5.68;;;3.75;;
20695;SDS011;10507;52.754;13.040;2023-06-26T10:34:30;4.18;;;3.33;;
20695;SDS011;10507;52.754;13.040;2023-06-26T10:36:58;5.63;;;3.10;;
20695;SDS011;10507;52.754;13.040;2023-06-26T10:39:31;6.03;;;3.63;;
20695;SDS011;10507;52.754;13.040;2023-06-26T10:42:13;5.45;;;3.22;;
20695;SDS011;10507;52.754;13.040;2023-06-26T10:44:43;5.07;;;3.40;;
20695;SDS011;10507;52.754;13.040;2023-06-26T10:47:12;4.35;;;3.30;;
20695;SDS011;10507;52.754;13.040;2023-06-26T10:50:13;4.05;;;3.25;;
20695;SDS011;10507;52.754;13.040;2023-06-26T10:55:43;4.43;;;3.53;;
20695;SDS011;10507;52.754;13.040;2023-06-26T10:58:27;4.43;;;3.50;;
20695;SDS011;10507;52.754;13.040;2023-06-26T11:01:19;5.30;;;3.35;;
20695;SDS011;10507;52.754;13.040;2023-06-26T11:03:49;4.38;;;3.30;;
20695;SDS011;10507;52.754;13.040;2023-06-26T11:06:29;4.75;;;3.67;;
20695;SDS011;10507;52.754;13.040;2023-06-26T11:08:59;4.72;;;3.17;;
20695;SDS011;10507;52.754;13.040;2023-06-26T11:14:28;4.05;;;3.30;;
20695;SDS011;10507;52.754;13.040;2023-06-26T11:17:01;4.47;;;3.63;;
20695;SDS011;10507;52.754;13.040;2023-06-26T11:19:30;4.30;;;3.22;;
20695;SDS011;10507;52.754;13.040;2023-06-26T11:21:59;3.85;;;3.05;;
20695;SDS011;10507;52.754;13.040;2023-06-26T11:24:27;5.13;;;3.55;;
20695;SDS011;10507;52.754;13.040;2023-06-26T11:27:01;5.03;;;3.70;;
20695;SDS011;10507;52.754;13.040;2023-06-26T11:29:30;3.92;;;3.20;;
20695;SDS011;10507;52.754;13.040;2023-06-26T11:32:05;5.53;;;3.83;;
20695;SDS011;10507;52.754;13.040;2023-06-26T11:34:34;4.72;;;3.60;;
20695;SDS011;10507;52.754;13.040;2023-06-26T11:37:04;6.30;;;3.85;;
20695;SDS011;10507;52.754;13.040;2023-06-26T11:39:33;4.13;;;3.38;;
20695;SDS011;10507;52.754;13.040;2023-06-26T11:42:01;5.57;;;4.00;;
20695;SDS011;10507;52.754;13.040;2023-06-26T11:44:29;6.60;;;3.47;;
20695;SDS011;10507;52.754;13.040;2023-06-26T11:46:58;5.22;;;3.42;;
20695;SDS011;10507;52.754;13.040;2023-06-26T11:49:27;6.40;;;4.05;;
20695;SDS011;10507;52.754;13.040;2023-06-26T11:51:56;5.32;;;3.75;;
20695;SDS011;10507;52.754;13.040;2023-06-26T11:54:24;4.47;;;3.55;;
20695;SDS011;10507;52.754;13.040;2023-06-26T11:56:54;6.75;;;3.47;;
20695;SDS011;10507;52.754;13.040;2023-06-26T11:59:24;5.45;;;3.90;;
20695;SDS011;10507;52.754;13.040;2023-06-26T12:01:58;4.45;;;3.60;;
20695;SDS011;10507;52.754;13.040;2023-06-26T12:04:28;8.30;;;3.95;;
20695;SDS011;10507;52.754;13.040;2023-06-26T12:06:56;4.97;;;3.42;;
20695;SDS011;10507;52.754;13.040;2023-06-26T12:09:25;5.68;;;3.72;;
20695;SDS011;10507;52.754;13.040;2023-06-26T12:11:54;5.38;;;4.00;;
20695;SDS011;10507;52.754;13.040;2023-06-26T12:14:23;4.75;;;3.53;;
20695;SDS011;10507;52.754;13.040;2023-06-26T12:16:54;6.75;;;3.75;;
20695;SDS011;10507;52.754;13.040;2023-06-26T12:19:25;6.50;;;3.85;;
20695;SDS011;10507;52.754;13.040;2023-06-26T12:21:55;4.90;;;3.80;;
20695;SDS011;10507;52.754;13.040;2023-06-26T12:24:23;4.75;;;3.97;;
20695;SDS011;10507;52.754;13.040;2023-06-26T12:26:52;5.63;;;4.00;;
20695;SDS011;10507;52.754;13.040;2023-06-26T12:29:28;5.63;;;3.60;;
20695;SDS011;10507;52.754;13.040;2023-06-26T12:31:59;6.60;;;3.95;;
20695;SDS011;10507;52.754;13.040;2023-06-26T12:34:28;5.15;;;3.60;;
20695;SDS011;10507;52.754;13.040;2023-06-26T12:37:01;6.18;;;3.97;;
20695;SDS011;10507;52.754;13.040;2023-06-26T12:39:44;4.53;;;3.58;;
20695;SDS011;10507;52.754;13.040;2023-06-26T12:42:13;5.57;;;3.92;;
20695;SDS011;10507;52.754;13.040;2023-06-26T12:44:43;5.75;;;3.95;;
20695;SDS011;10507;52.754;13.040;2023-06-26T12:47:11;5.07;;;4.20;;
20695;SDS011;10507;52.754;13.040;2023-06-26T12:49:42;5.43;;;4.05;;
20695;SDS011;10507;52.754;13.040;2023-06-26T12:52:13;5.20;;;3.80;;
20695;SDS011;10507;52.754;13.040;2023-06-26T12:54:42;4.97;;;3.85;;
20695;SDS011;10507;52.754;13.040;2023-06-26T12:57:10;4.63;;;4.00;;
20695;SDS011;10507;52.754;13.040;2023-06-26T12:59:40;5.57;;;4.55;;
20695;SDS011;10507;52.754;13.040;2023-06-26T13:02:09;5.15;;;3.88;;
20695;SDS011;10507;52.754;13.040;2023-06-26T13:04:38;5.53;;;4.43;;
20695;SDS011;10507;52.754;13.040;2023-06-26T13:07:07;6.63;;;4.35;;
20695;SDS011;10507;52.754;13.040;2023-06-26T13:09:37;5.00;;;4.10;;
20695;SDS011;10507;52.754;13.040;2023-06-26T13:12:07;5.55;;;4.63;;
20695;SDS011;10507;52.754;13.040;2023-06-26T13:14:36;6.60;;;4.60;;
20695;SDS011;10507;52.754;13.040;2023-06-26T13:17:04;5.55;;;4.60;;
20695;SDS011;10507;52.754;13.040;2023-06-26T13:19:35;5.63;;;4.55;;
20695;SDS011;10507;52.754;13.040;2023-06-26T13:22:03;6.07;;;4.53;;
20695;SDS011;10507;52.754;13.040;2023-06-26T13:24:33;6.05;;;4.55;;
20695;SDS011;10507;52.754;13.040;2023-06-26T13:27:03;7.55;;;4.95;;
20695;SDS011;10507;52.754;13.040;2023-06-26T13:29:31;6.68;;;4.18;;
20695;SDS011;10507;52.754;13.040;2023-06-26T13:31:59;9.45;;;4.72;;
20695;SDS011;10507;52.754;13.040;2023-06-26T13:34:27;7.63;;;4.85;;
20695;SDS011;10507;52.754;13.040;2023-06-26T13:36:56;5.85;;;4.50;;
20695;SDS011;10507;52.754;13.040;2023-06-26T13:39:28;7.57;;;4.68;;
20695;SDS011;10507;52.754;13.040;2023-06-26T13:41:56;5.43;;;4.25;;
20695;SDS011;10507;52.754;13.040;2023-06-26T13:44:26;5.90;;;4.30;;
20695;SDS011;10507;52.754;13.040;2023-06-26T13:47:12;6.65;;;4.57;;
20695;SDS011;10507;52.754;13.040;2023-06-26T13:49:41;8.20;;;4.65;;
20695;SDS011;10507;52.754;13.040;2023-06-26T13:52:09;11.00;;;4.93;;
20695;SDS011;10507;52.754;13.040;2023-06-26T13:54:37;10.43;;;5.38;;
20695;SDS011;10507;52.754;13.040;2023-06-26T13:57:06;10.35;;;5.13;;
20695;SDS011;10507;52.754;13.040;2023-06-26T13:59:36;7.45;;;4.65;;
20695;SDS011;10507;52.754;13.040;2023-06-26T14:02:06;9.63;;;4.85;;
20695;SDS011;10507;52.754;13.040;2023-06-26T14:04:35;7.43;;;4.82;;
20695;SDS011;10507;52.754;13.040;2023-06-26T14:07:03;11.35;;;5.75;;
20695;SDS011;10507;52.754;13.040;2023-06-26T14:09:32;6.82;;;5.07;;
20695;SDS011;10507;52.754;13.040;2023-06-26T14:12:00;6.93;;;5.20;;
20695;SDS011;10507;52.754;13.040;2023-06-26T14:14:28;8.57;;;6.55;;
20695;SDS011;10507;52.754;13.040;2023-06-26T14:16:58;8.38;;;6.70;;
20695;SDS011;10507;52.754;13.040;2023-06-26T14:19:26;11.80;;;6.60;;
20695;SDS011;10507;52.754;13.040;2023-06-26T14:21:54;11.13;;;6.55;;
20695;SDS011;10507;52.754;13.040;2023-06-26T14:24:22;10.43;;;6.57;;
20695;SDS011;10507;52.754;13.040;2023-06-26T14:26:50;8.90;;;6.50;;
20695;SDS011;10507;52.754;13.040;2023-06-26T14:29:17;8.38;;;6.68;;
20695;SDS011;10507;52.754;13.040;2023-06-26T14:31:46;11.90;;;7.22;;
20695;SDS011;10507;52.754;13.040;2023-06-26T14:34:18;9.25;;;6.57;;
20695;SDS011;10507;52.754;13.040;2023-06-26T14:36:46;7.65;;;6.03;;
20695;SDS011;10507;52.754;13.040;2023-06-26T14:39:14;9.70;;;7.43;;
20695;SDS011;10507;52.754;13.040;2023-06-26T14:41:42;8.70;;;7.18;;
20695;SDS011;10507;52.754;13.040;2023-06-26T14:44:11;8.32;;;6.90;;